Time;durP1;ratioP1;P1;durP2;ratioP2;P2;SDS_P1;SDS_P2;PMS_P1;PMS_P2;Temp;Humidity;BMP_temperature;BMP_pressure;BME280_temperature;BME280_humidity;BME280_pressure;Samples;Min_cycle;Max_cycle;Signal;HPM_P1;HPM_P2
2022/02/06 00:02:18;;;;;;;1.40;1.20;;;5.50;99.90;;;;;;5096550;28;20481;-38
2022/02/06 00:04:49;;;;;;;2.70;0.93;;;5.50;99.90;;;;;;5096579;28;20531;-38
2022/02/06 00:07:16;;;;;;;2.83;1.83;;;5.50;99.90;;;;;;5096376;28;20426;-38
2022/02/06 00:09:45;;;;;;;9.13;2.07;;;5.40;99.90;;;;;;5096347;28;20456;-37
2022/02/06 00:12:12;;;;;;;4.50;1.40;;;5.40;99.90;;;;;;5096329;28;20492;-38
2022/02/06 00:14:39;;;;;;;3.03;1.10;;;5.40;99.90;;;;;;5096783;28;20522;-35
2022/02/06 00:17:07;;;;;;;2.83;1.50;;;5.40;99.90;;;;;;5096325;28;20459;-38
2022/02/06 00:19:34;;;;;;;2.87;1.53;;;5.40;99.90;;;;;;5095710;28;20465;-33
2022/02/06 00:22:05;;;;;;;3.37;1.30;;;5.40;99.90;;;;;;5095744;28;20467;-37
2022/02/06 00:24:39;;;;;;;4.03;1.67;;;5.50;99.90;;;;;;5094230;28;20694;-37
2022/02/06 00:27:09;;;;;;;2.80;1.00;;;5.60;99.90;;;;;;5093454;28;20439;-34
2022/02/06 00:29:47;;;;;;;2.00;1.50;;;5.60;99.90;;;;;;5094568;28;20433;-39
2022/02/06 00:32:26;;;;;;;5.13;1.80;;;5.70;99.90;;;;;;5096242;28;20474;-36
2022/02/06 00:38:08;;;;;;;4.10;2.50;;;5.70;99.90;;;;;;5059755;28;20454;-37
2022/02/06 00:40:53;;;;;;;4.60;1.57;;;5.80;99.90;;;;;;5096002;28;20514;-37
2022/02/06 00:43:20;;;;;;;1.70;1.00;;;5.80;99.90;;;;;;5095738;28;20493;-35
2022/02/06 00:45:47;;;;;;;3.73;1.40;;;5.80;99.90;;;;;;5096448;28;20450;-37
2022/02/06 00:48:19;;;;;;;9.23;1.80;;;5.80;99.90;;;;;;5096164;28;20460;-37
2022/02/06 00:50:50;;;;;;;8.73;1.47;;;5.80;99.90;;;;;;5095753;28;20470;-36
2022/02/06 00:53:18;;;;;;;1.70;1.60;;;5.90;99.90;;;;;;5095763;28;20472;-38
2022/02/06 00:55:45;;;;;;;2.07;1.00;;;5.90;99.90;;;;;;5096337;28;20466;-37
2022/02/06 00:58:12;;;;;;;2.73;1.30;;;5.90;99.90;;;;;;5099650;28;20454;-40
2022/02/06 01:00:41;;;;;;;1.50;1.17;;;5.90;99.90;;;;;;5099977;28;20477;-38
2022/02/06 01:03:07;;;;;;;2.87;1.33;;;5.90;99.90;;;;;;5100099;28;20456;-37
2022/02/06 01:05:34;;;;;;;1.77;1.30;;;5.90;99.90;;;;;;5099644;28;20459;-41
2022/02/06 01:08:01;;;;;;;2.63;1.20;;;6.00;99.90;;;;;;5099571;28;20451;-41
2022/02/06 01:10:29;;;;;;;1.50;1.17;;;6.00;99.90;;;;;;5099861;28;20463;-37
2022/02/06 01:13:00;;;;;;;1.13;0.90;;;6.00;99.90;;;;;;5100096;28;20435;-39
2022/02/06 01:15:32;;;;;;;3.20;1.40;;;6.00;99.90;;;;;;5099760;28;20447;-44
2022/02/06 01:18:03;;;;;;;2.17;1.03;;;6.10;99.90;;;;;;5100072;28;20452;-38
2022/02/06 01:20:34;;;;;;;2.30;1.00;;;6.10;99.90;;;;;;5099783;28;20416;-36
2022/02/06 01:23:07;;;;;;;4.90;1.33;;;6.10;99.90;;;;;;5099693;28;20470;-39
2022/02/06 01:25:41;;;;;;;5.77;1.73;;;6.10;99.90;;;;;;5099946;28;20435;-40
2022/02/06 01:28:11;;;;;;;4.37;1.30;;;6.10;99.90;;;;;;5099795;28;20952;-44
2022/02/06 01:30:46;;;;;;;2.13;1.43;;;6.10;99.90;;;;;;5099992;28;20423;-37
2022/02/06 01:33:17;;;;;;;5.43;1.30;;;6.20;99.90;;;;;;5099579;28;20472;-40
2022/02/06 01:35:50;;;;;;;2.80;1.40;;;6.20;99.90;;;;;;5099413;28;20415;-39
2022/02/06 01:38:22;;;;;;;3.67;1.30;;;6.20;99.90;;;;;;5099456;28;20470;-43
2022/02/06 01:41:04;;;;;;;4.53;0.97;;;6.20;99.90;;;;;;5099172;28;20445;-42
2022/02/06 01:43:38;;;;;;;2.40;1.57;;;6.20;99.90;;;;;;5099573;28;20462;-37
2022/02/06 01:46:22;;;;;;;3.17;1.30;;;6.10;99.90;;;;;;5100120;28;20441;-39
2022/02/06 01:57:29;;;;;;;1.90;0.90;;;6.10;99.90;;;;;;5099869;28;20415;-36
2022/02/06 02:03:00;;;;;;;2.67;2.27;;;6.10;99.90;;;;;;5093683;28;20473;-37
2022/02/06 02:05:47;;;;;;;1.00;0.80;;;6.10;99.90;;;;;;5098413;28;20411;-38
2022/02/06 02:08:51;;;;;;;2.07;1.30;;;6.20;99.90;;;;;;5097393;28;20487;-39
2022/02/06 02:17:23;;;;;;;2.60;1.03;;;6.00;99.90;;;;;;5036894;28;20469;-36
2022/02/06 02:20:15;;;;;;;1.20;0.83;;;6.00;99.90;;;;;;5093320;28;20447;-35
2022/02/06 02:25:49;;;;;;;1.47;1.00;;;6.00;99.90;;;;;;5098407;28;20414;-39
2022/02/06 02:28:46;;;;;;;2.27;1.20;;;6.00;99.90;;;;;;5097875;28;20486;-39
2022/02/06 02:31:51;;;;;;;1.27;1.07;;;5.90;99.90;;;;;;5098092;28;20523;-38
2022/02/06 02:45:26;;;;;;;2.10;1.83;;;5.90;99.90;;;;;;5097963;28;20447;-35
2022/02/06 02:48:01;;;;;;;2.77;0.90;;;5.80;99.90;;;;;;5097285;28;20869;-39
2022/02/06 02:50:29;;;;;;;1.10;0.80;;;5.80;99.90;;;;;;5097575;28;20458;-37
2022/02/06 02:53:08;;;;;;;1.97;1.50;;;5.80;99.90;;;;;;5097332;28;20438;-39
2022/02/06 02:55:57;;;;;;;6.37;1.20;;;5.80;99.90;;;;;;5097894;28;20462;-36
2022/02/06 02:58:41;;;;;;;3.13;1.30;;;5.80;99.90;;;;;;5097739;28;20460;-37
2022/02/06 03:01:14;;;;;;;1.30;1.00;;;5.80;99.90;;;;;;5097105;28;20467;-39
2022/02/06 03:03:41;;;;;;;1.90;1.13;;;5.80;99.90;;;;;;5097860;28;20451;-35
2022/02/06 03:06:09;;;;;;;5.10;1.70;;;5.80;99.90;;;;;;5096317;28;20459;-39
2022/02/06 03:08:38;;;;;;;4.93;1.63;;;5.80;99.90;;;;;;5092921;28;20434;-38
2022/02/06 03:11:09;;;;;;;4.23;1.30;;;5.70;99.90;;;;;;5093046;28;20423;-39
2022/02/06 03:13:40;;;;;;;1.03;0.90;;;5.70;99.90;;;;;;5093640;28;20466;-38
2022/02/06 03:16:19;;;;;;;1.67;1.10;;;5.60;99.90;;;;;;5093371;28;20427;-37
2022/02/06 03:18:52;;;;;;;1.40;1.20;;;5.60;99.90;;;;;;5092498;28;20469;-39
2022/02/06 03:21:21;;;;;;;1.63;1.53;;;5.60;99.90;;;;;;5092251;28;20467;-40
2022/02/06 03:23:51;;;;;;;4.13;1.40;;;5.50;99.90;;;;;;5092490;28;20470;-39
2022/02/06 03:26:22;;;;;;;3.97;1.83;;;5.60;99.90;;;;;;5092454;28;20486;-38
2022/02/06 03:28:50;;;;;;;4.23;1.10;;;5.60;99.90;;;;;;5093237;28;20427;-38
2022/02/06 03:31:16;;;;;;;1.33;1.10;;;5.60;99.90;;;;;;5093038;28;20443;-38
2022/02/06 03:33:47;;;;;;;3.73;1.60;;;5.50;99.90;;;;;;5093372;28;20454;-38
2022/02/06 03:36:13;;;;;;;1.77;1.67;;;5.50;99.90;;;;;;5094724;28;20461;-39
2022/02/06 03:38:40;;;;;;;2.07;1.07;;;5.40;99.90;;;;;;5094460;28;20467;-37
2022/02/06 03:41:12;;;;;;;1.20;1.00;;;5.40;99.90;;;;;;5093941;28;20804;-38
2022/02/06 03:43:50;;;;;;;1.77;1.07;;;5.40;99.90;;;;;;5094367;28;20463;-36
2022/02/06 03:46:24;;;;;;;1.00;0.90;;;5.40;99.90;;;;;;5094332;28;20464;-38
2022/02/06 03:48:54;;;;;;;1.47;1.27;;;5.50;99.90;;;;;;5093036;28;20493;-35
2022/02/06 03:51:23;;;;;;;2.23;1.37;;;5.50;99.90;;;;;;5092793;28;20534;-38
2022/02/06 03:53:52;;;;;;;1.93;1.17;;;5.50;99.90;;;;;;5092735;28;20431;-38
2022/02/06 03:56:20;;;;;;;2.57;1.40;;;5.50;99.90;;;;;;5092016;28;20455;-38
2022/02/06 03:58:49;;;;;;;2.00;1.23;;;5.50;99.90;;;;;;5092897;28;20443;-39
2022/02/06 04:01:16;;;;;;;0.93;0.80;;;5.40;99.90;;;;;;5092148;28;20453;-38
2022/02/06 04:03:45;;;;;;;1.83;1.20;;;5.40;99.90;;;;;;5092621;28;20491;-38
2022/02/06 04:06:12;;;;;;;1.40;1.30;;;5.40;99.90;;;;;;5092121;28;20450;-39
2022/02/06 04:08:40;;;;;;;1.80;1.40;;;5.40;99.90;;;;;;5092666;28;20520;-38
2022/02/06 04:11:11;;;;;;;1.87;1.53;;;5.40;99.90;;;;;;5093335;28;20443;-38
2022/02/06 04:13:52;;;;;;;2.00;1.50;;;5.40;99.90;;;;;;5092966;28;20491;-38
2022/02/06 04:16:26;;;;;;;6.60;1.60;;;5.40;99.90;;;;;;5091907;28;20749;-39
2022/02/06 04:19:04;;;;;;;3.33;1.23;;;5.40;99.90;;;;;;5092493;28;20498;-39
2022/02/06 04:21:31;;;;;;;1.93;1.30;;;5.40;99.90;;;;;;5093351;28;20465;-40
2022/02/06 04:23:58;;;;;;;1.87;1.10;;;5.40;99.90;;;;;;5092908;28;20501;-39
2022/02/06 04:26:24;;;;;;;2.73;1.73;;;5.40;99.90;;;;;;5092784;28;20457;-39
2022/02/06 04:28:51;;;;;;;2.53;1.53;;;5.50;99.90;;;;;;5091585;28;20446;-40
2022/02/06 04:31:19;;;;;;;3.10;2.10;;;5.50;99.90;;;;;;5091099;28;20565;-39
2022/02/06 04:33:46;;;;;;;2.20;1.30;;;5.50;99.90;;;;;;5091669;28;20891;-39
2022/02/06 04:36:14;;;;;;;3.07;1.03;;;5.60;99.90;;;;;;5091246;28;20470;-39
2022/02/06 04:38:52;;;;;;;3.80;2.03;;;5.60;99.90;;;;;;5091764;28;20474;-39
2022/02/06 04:44:33;;;;;;;7.27;1.10;;;5.70;99.90;;;;;;5087567;28;20486;-37
2022/02/06 04:47:47;;;;;;;2.07;1.30;;;5.70;99.90;;;;;;5091517;28;20496;-38
2022/02/06 04:53:23;;;;;;;3.47;1.83;;;5.80;99.90;;;;;;5092376;28;20452;-37
2022/02/06 05:10:59;;;;;;;2.33;1.40;;;5.70;99.90;;;;;;5092552;28;20503;-38
2022/02/06 05:19:06;;;;;;;2.23;1.50;;;5.70;99.90;;;;;;5090091;28;20783;-37
2022/02/06 05:24:54;;;;;;;2.60;1.70;;;5.70;99.90;;;;;;5090735;28;20439;-38
2022/02/06 05:27:37;;;;;;;2.17;1.30;;;5.70;99.90;;;;;;5091544;28;20503;-36
2022/02/06 05:30:10;;;;;;;2.10;1.90;;;5.70;99.90;;;;;;5092784;28;20511;-38
2022/02/06 05:32:38;;;;;;;5.40;1.43;;;5.70;99.90;;;;;;5091741;28;20459;-38
2022/02/06 05:35:07;;;;;;;6.30;1.53;;;5.80;99.90;;;;;;5091755;28;20507;-41
2022/02/06 05:37:36;;;;;;;1.37;1.10;;;5.80;99.90;;;;;;5091681;28;20463;-37
2022/02/06 05:40:03;;;;;;;8.43;2.07;;;5.80;99.90;;;;;;5091986;28;20439;-38
2022/02/06 05:42:30;;;;;;;2.17;1.13;;;5.80;99.90;;;;;;5092293;28;20478;-40
2022/02/06 05:44:57;;;;;;;1.60;1.40;;;5.80;99.90;;;;;;5095511;28;20417;-38
2022/02/06 05:47:27;;;;;;;1.83;0.93;;;5.80;99.90;;;;;;5094614;28;20458;-40
2022/02/06 05:49:56;;;;;;;8.70;2.10;;;5.80;99.90;;;;;;5096268;28;20465;-38
2022/02/06 05:52:24;;;;;;;2.10;1.30;;;5.80;99.90;;;;;;5096637;28;20447;-38
2022/02/06 05:54:52;;;;;;;7.67;2.23;;;5.80;99.90;;;;;;5095969;28;20466;-37
2022/02/06 05:57:19;;;;;;;1.73;1.33;;;5.80;99.90;;;;;;5096141;28;20439;-39
2022/02/06 05:59:48;;;;;;;5.63;2.07;;;5.80;99.90;;;;;;5094980;28;20493;-38
2022/02/06 06:02:14;;;;;;;3.27;1.30;;;5.80;99.90;;;;;;5095540;28;20473;-38
2022/02/06 06:04:41;;;;;;;1.63;1.00;;;5.70;99.90;;;;;;5095082;28;20464;-37
2022/02/06 06:07:07;;;;;;;2.17;1.20;;;5.70;99.90;;;;;;5095085;28;20429;-36
2022/02/06 06:09:34;;;;;;;2.90;1.33;;;5.80;99.90;;;;;;5095203;28;20448;-39
2022/02/06 06:12:02;;;;;;;2.10;1.20;;;5.80;99.90;;;;;;5094801;28;20449;-36
2022/02/06 06:14:30;;;;;;;4.60;1.30;;;5.80;99.90;;;;;;5095153;28;20448;-37
2022/02/06 06:16:57;;;;;;;1.87;1.30;;;5.80;99.90;;;;;;5095042;28;20487;-36
2022/02/06 06:19:24;;;;;;;2.20;1.50;;;5.80;99.90;;;;;;5095004;28;20443;-36
2022/02/06 06:21:54;;;;;;;1.97;1.40;;;5.80;99.90;;;;;;5095802;28;20468;-39
2022/02/06 06:24:22;;;;;;;3.47;1.50;;;5.70;99.90;;;;;;5095471;28;20470;-37
2022/02/06 06:26:52;;;;;;;2.57;1.37;;;5.80;99.90;;;;;;5092814;28;20468;-39
2022/02/06 06:29:20;;;;;;;1.70;1.27;;;5.80;99.90;;;;;;5089181;28;20454;-39
2022/02/06 06:31:51;;;;;;;6.03;1.30;;;5.80;99.90;;;;;;5093769;28;20455;-43
2022/02/06 06:34:17;;;;;;;3.70;1.53;;;5.80;99.90;;;;;;5094805;28;20438;-37
2022/02/06 06:36:45;;;;;;;1.23;1.13;;;5.80;99.90;;;;;;5094403;28;20485;-38
2022/02/06 06:39:12;;;;;;;1.10;1.00;;;5.80;99.90;;;;;;5094290;28;20435;-37
2022/02/06 06:41:39;;;;;;;1.60;1.03;;;5.80;99.90;;;;;;5093603;28;20463;-36
2022/02/06 06:44:06;;;;;;;3.53;1.23;;;5.90;99.90;;;;;;5093747;28;20504;-38
2022/02/06 06:46:34;;;;;;;2.70;1.40;;;5.90;99.90;;;;;;5094165;28;20441;-36
2022/02/06 06:49:01;;;;;;;1.97;1.00;;;5.90;99.90;;;;;;5094308;28;20485;-37
2022/02/06 06:51:28;;;;;;;3.47;1.50;;;5.80;99.90;;;;;;5093848;28;20477;-36
2022/02/06 06:53:55;;;;;;;1.03;0.93;;;5.80;99.90;;;;;;5093944;28;20880;-37
2022/02/06 06:56:29;;;;;;;3.10;1.30;;;5.80;99.90;;;;;;5094015;28;20443;-40
2022/02/06 06:58:55;;;;;;;1.80;1.33;;;5.90;99.90;;;;;;5090618;28;20457;-36
2022/02/06 07:01:43;;;;;;;1.43;1.17;;;5.90;99.90;;;;;;5093366;28;20435;-38
2022/02/06 07:04:11;;;;;;;2.90;1.10;;;5.90;99.90;;;;;;5091411;28;20555;-37
2022/02/06 07:06:38;;;;;;;2.10;1.50;;;5.90;99.90;;;;;;5092959;28;20436;-35
2022/02/06 07:09:05;;;;;;;3.33;1.00;;;5.90;99.90;;;;;;5094117;28;20442;-36
2022/02/06 07:11:31;;;;;;;2.73;1.50;;;5.90;99.90;;;;;;5092897;28;20481;-39
2022/02/06 07:14:00;;;;;;;3.60;1.07;;;5.90;99.90;;;;;;5092687;28;20428;-38
2022/02/06 07:16:27;;;;;;;1.40;0.97;;;5.90;99.90;;;;;;5092071;28;20447;-36
2022/02/06 07:18:54;;;;;;;1.93;1.33;;;5.90;99.90;;;;;;5092674;28;20444;-37
2022/02/06 07:21:24;;;;;;;1.50;1.10;;;5.90;99.90;;;;;;5092857;28;20452;-37
2022/02/06 07:23:52;;;;;;;1.00;0.87;;;6.00;99.90;;;;;;5092738;28;20514;-37
2022/02/06 07:26:19;;;;;;;2.73;1.00;;;6.00;99.90;;;;;;5092295;28;20451;-37
2022/02/06 07:28:49;;;;;;;1.30;1.10;;;6.00;99.90;;;;;;5091978;28;20439;-39
2022/02/06 07:31:17;;;;;;;1.77;0.90;;;6.00;99.90;;;;;;5092298;28;20446;-37
2022/02/06 07:33:44;;;;;;;1.37;0.90;;;6.00;99.90;;;;;;5092222;28;20527;-38
2022/02/06 07:36:10;;;;;;;1.93;1.23;;;6.00;99.90;;;;;;5091884;28;20454;-39
2022/02/06 07:38:39;;;;;;;1.50;1.10;;;6.10;99.90;;;;;;5091822;28;20474;-39
2022/02/06 07:41:06;;;;;;;1.47;1.37;;;6.10;99.90;;;;;;5090990;28;20456;-40
2022/02/06 07:43:32;;;;;;;2.23;0.90;;;6.20;99.90;;;;;;5092538;28;20487;-38
2022/02/06 07:46:00;;;;;;;2.27;1.23;;;6.20;99.90;;;;;;5091810;28;20432;-41
2022/02/06 07:48:26;;;;;;;1.60;1.10;;;6.20;99.90;;;;;;5091566;28;20460;-39
2022/02/06 07:50:53;;;;;;;1.53;1.13;;;6.20;99.90;;;;;;5091697;28;20453;-39
2022/02/06 07:53:21;;;;;;;1.20;0.73;;;6.20;99.90;;;;;;5091261;28;20460;-39
2022/02/06 07:55:49;;;;;;;6.60;1.20;;;6.20;99.90;;;;;;5090836;28;20468;-38
2022/02/06 07:58:18;;;;;;;1.27;0.90;;;6.30;99.90;;;;;;5090484;28;20458;-37
2022/02/06 08:00:44;;;;;;;1.00;0.87;;;6.40;99.90;;;;;;5090434;28;20440;-38
2022/02/06 08:03:11;;;;;;;0.90;0.70;;;6.40;99.90;;;;;;5091257;28;20545;-37
2022/02/06 08:05:38;;;;;;;3.40;1.13;;;6.50;99.90;;;;;;5088796;28;20466;-37
2022/02/06 08:08:12;;;;;;;3.17;1.10;;;6.50;99.90;;;;;;5091199;28;20497;-39
2022/02/06 08:10:38;;;;;;;3.83;1.40;;;6.50;99.90;;;;;;5090964;28;20430;-38
2022/02/06 08:13:10;;;;;;;2.10;1.10;;;6.60;99.90;;;;;;5090888;28;20447;-39
2022/02/06 08:15:37;;;;;;;1.30;1.10;;;6.60;99.90;;;;;;5091662;28;20456;-38
2022/02/06 08:18:04;;;;;;;1.37;0.87;;;6.60;99.90;;;;;;5091097;28;20535;-41
2022/02/06 08:20:31;;;;;;;11.87;2.57;;;6.60;99.90;;;;;;5091840;28;20455;-36
2022/02/06 08:22:57;;;;;;;5.73;1.73;;;6.60;99.90;;;;;;5090436;28;20463;-38
2022/02/06 08:25:24;;;;;;;3.37;1.10;;;6.60;99.90;;;;;;5090136;28;20819;-38
2022/02/06 08:27:51;;;;;;;1.50;0.90;;;6.60;99.90;;;;;;5090147;28;20484;-40
2022/02/06 08:30:19;;;;;;;1.50;1.20;;;6.70;99.90;;;;;;5090039;28;20419;-38
2022/02/06 08:32:46;;;;;;;2.27;1.00;;;6.70;99.90;;;;;;5089744;28;20651;-36
2022/02/06 08:35:13;;;;;;;3.53;1.30;;;6.70;99.90;;;;;;5087422;28;20428;-38
2022/02/06 08:37:40;;;;;;;1.87;1.30;;;6.70;99.90;;;;;;5090237;28;20442;-38
2022/02/06 08:40:12;;;;;;;1.30;0.70;;;6.70;99.90;;;;;;5090320;28;20514;-39
2022/02/06 08:42:40;;;;;;;1.60;1.17;;;6.80;99.90;;;;;;5089976;28;20822;-40
2022/02/06 08:45:09;;;;;;;1.80;1.43;;;6.80;99.90;;;;;;5089972;28;20546;-40
2022/02/06 08:47:38;;;;;;;3.47;1.17;;;6.90;99.90;;;;;;5090265;28;20467;-41
2022/02/06 08:50:06;;;;;;;1.30;1.20;;;6.90;99.90;;;;;;5090296;28;20462;-39
2022/02/06 08:52:33;;;;;;;1.67;0.93;;;6.90;99.90;;;;;;5090240;28;20508;-38
2022/02/06 08:55:00;;;;;;;1.40;0.73;;;6.80;99.90;;;;;;5090003;28;20443;-39
2022/02/06 08:57:27;;;;;;;1.10;1.00;;;6.90;99.90;;;;;;5090486;28;20454;-41
2022/02/06 08:59:56;;;;;;;1.40;0.97;;;6.90;99.90;;;;;;5089651;28;20488;-38
2022/02/06 09:02:23;;;;;;;1.97;0.97;;;7.00;99.90;;;;;;5089406;28;20474;-40
2022/02/06 09:04:51;;;;;;;1.70;1.17;;;7.00;99.90;;;;;;5089464;28;20496;-40
2022/02/06 09:07:19;;;;;;;3.27;1.13;;;7.00;99.90;;;;;;5089860;28;20468;-39
2022/02/06 09:09:48;;;;;;;1.53;0.70;;;7.10;99.90;;;;;;5090414;28;20567;-37
2022/02/06 09:12:15;;;;;;;1.10;0.80;;;7.20;99.90;;;;;;5090643;28;20468;-38
2022/02/06 09:14:42;;;;;;;0.90;0.60;;;7.20;99.90;;;;;;5090230;28;20459;-37
2022/02/06 09:17:10;;;;;;;1.10;0.70;;;7.20;99.90;;;;;;5090985;28;20471;-40
2022/02/06 09:19:39;;;;;;;1.97;0.80;;;7.20;99.90;;;;;;5093112;28;20484;-40
2022/02/06 09:22:09;;;;;;;1.60;1.13;;;7.10;99.90;;;;;;5093167;28;20470;-39
2022/02/06 09:24:36;;;;;;;1.77;0.87;;;7.10;99.90;;;;;;5092612;28;20483;-40
2022/02/06 09:27:03;;;;;;;2.03;1.10;;;7.20;99.90;;;;;;5092800;28;20480;-38
2022/02/06 09:29:29;;;;;;;1.40;0.73;;;7.20;99.90;;;;;;5091954;28;20532;-40
2022/02/06 09:31:56;;;;;;;1.30;0.80;;;7.20;99.90;;;;;;5093376;28;20432;-39
2022/02/06 09:36:49;;;;;;;1.00;0.80;;;7.10;99.90;;;;;;5092907;28;20501;-39
2022/02/06 09:39:17;;;;;;;1.17;0.90;;;7.20;99.90;;;;;;5092435;28;20221;-38
2022/02/06 09:41:46;;;;;;;2.73;1.50;;;7.20;99.90;;;;;;5092895;28;20424;-35
2022/02/06 09:44:13;;;;;;;1.20;0.90;;;7.20;99.90;;;;;;5092617;28;20572;-39
2022/02/06 09:46:41;;;;;;;1.50;1.13;;;7.30;99.90;;;;;;5091248;28;20502;-38
2022/02/06 09:49:09;;;;;;;1.50;1.00;;;7.20;99.90;;;;;;5092311;28;20472;-59
2022/02/06 09:51:36;;;;;;;2.90;1.00;;;7.30;99.90;;;;;;5093125;28;20463;-63
2022/02/06 09:54:03;;;;;;;2.00;1.63;;;7.30;99.90;;;;;;5092565;28;20436;-57
2022/02/06 09:56:36;;;;;;;0.90;0.70;;;7.40;99.90;;;;;;5088982;28;20439;-59
2022/02/06 09:59:07;;;;;;;4.97;1.10;;;7.40;99.90;;;;;;5084119;28;20888;-60
2022/02/06 10:01:35;;;;;;;2.20;1.13;;;7.50;99.90;;;;;;5084113;28;20874;-62
2022/02/06 10:04:08;;;;;;;3.23;1.23;;;7.60;99.90;;;;;;5084581;28;20485;-60
2022/02/06 10:06:45;;;;;;;2.40;1.10;;;7.80;99.90;;;;;;5082446;28;20441;-61
2022/02/06 10:09:16;;;;;;;1.40;0.90;;;7.90;99.90;;;;;;5083699;28;20434;-55
2022/02/06 10:11:48;;;;;;;1.53;1.10;;;8.00;99.90;;;;;;5082921;28;20434;-58
2022/02/06 10:14:15;;;;;;;1.43;1.13;;;8.40;99.90;;;;;;5082182;28;20431;-59
2022/02/06 10:16:41;;;;;;;1.50;1.03;;;8.70;99.90;;;;;;5082533;28;20783;-59
2022/02/06 10:19:09;;;;;;;1.10;1.00;;;8.70;99.90;;;;;;5082072;28;20445;-60
2022/02/06 10:21:36;;;;;;;1.10;0.90;;;8.80;99.90;;;;;;5082315;28;20459;-60
2022/02/06 10:24:09;;;;;;;3.47;1.70;;;8.90;99.90;;;;;;5081760;28;20642;-61
2022/02/06 10:26:40;;;;;;;3.47;1.40;;;9.10;99.90;;;;;;5079902;28;20465;-61
2022/02/06 10:29:37;;;;;;;1.83;1.10;;;9.40;99.90;;;;;;5080262;28;20454;-60
2022/02/06 10:32:04;;;;;;;6.53;1.97;;;9.20;99.90;;;;;;5081498;28;20542;-62
2022/02/06 10:34:35;;;;;;;2.37;1.17;;;9.00;99.90;;;;;;5081530;28;20540;-62
2022/02/06 10:37:14;;;;;;;4.17;1.43;;;9.20;99.90;;;;;;5081892;28;20887;-60
2022/02/06 10:39:52;;;;;;;3.23;1.60;;;9.20;99.90;;;;;;5081536;28;20454;-60
2022/02/06 10:42:21;;;;;;;4.93;2.03;;;9.10;99.90;;;;;;5081146;28;20438;-61
2022/02/06 10:44:50;;;;;;;1.77;1.53;;;9.20;99.90;;;;;;5081563;28;20996;-61
2022/02/06 10:47:30;;;;;;;3.67;1.70;;;9.10;99.90;;;;;;5081280;28;20439;-58
2022/02/06 10:50:08;;;;;;;2.80;1.53;;;9.00;99.90;;;;;;5082032;28;20532;-61
2022/02/06 10:52:35;;;;;;;1.90;1.20;;;8.80;99.90;;;;;;5081928;28;20441;-61
2022/02/06 10:55:02;;;;;;;4.60;2.67;;;8.70;99.90;;;;;;5081494;28;20521;-59
2022/02/06 10:57:29;;;;;;;2.20;1.67;;;8.60;99.90;;;;;;5081879;28;20461;-60
2022/02/06 11:00:00;;;;;;;1.43;1.07;;;8.50;99.90;;;;;;5082051;28;20914;-60
2022/02/06 11:02:28;;;;;;;2.20;0.73;;;8.50;99.90;;;;;;5081046;28;20460;-57
2022/02/06 11:05:01;;;;;;;1.70;1.20;;;8.50;99.90;;;;;;5081195;28;20493;-59
2022/02/06 11:07:28;;;;;;;2.50;1.20;;;8.50;99.90;;;;;;5081953;28;20465;-59
2022/02/06 11:10:13;;;;;;;1.20;0.90;;;8.40;99.90;;;;;;5081368;28;20505;-55
2022/02/06 11:12:42;;;;;;;1.30;0.80;;;8.40;99.90;;;;;;5081061;28;20418;-56
2022/02/06 11:15:29;;;;;;;1.60;0.90;;;8.50;99.90;;;;;;5081819;28;20455;-59
2022/02/06 11:18:07;;;;;;;1.50;1.17;;;8.50;99.90;;;;;;5078328;28;20450;-59
2022/02/06 11:20:35;;;;;;;2.37;1.10;;;8.50;99.90;;;;;;5078606;28;20472;-55
2022/02/06 11:23:03;;;;;;;6.70;1.07;;;8.50;99.90;;;;;;5078120;28;20426;-59
2022/02/06 11:25:31;;;;;;;1.30;1.13;;;8.50;99.90;;;;;;5078057;28;20980;-60
2022/02/06 11:27:58;;;;;;;2.23;1.27;;;8.60;99.90;;;;;;5078633;28;20458;-60
2022/02/06 11:30:27;;;;;;;1.23;0.87;;;8.60;99.90;;;;;;5078522;28;20444;-58
2022/02/06 11:32:54;;;;;;;1.53;0.80;;;8.60;99.90;;;;;;5079047;28;20431;-60
2022/02/06 11:35:24;;;;;;;5.33;1.00;;;8.60;99.90;;;;;;5079383;28;21029;-50
2022/02/06 11:43:52;;;;;;;1.57;0.90;;;8.60;99.90;;;;;;5078147;28;20444;-60
2022/02/06 11:46:24;;;;;;;1.70;1.13;;;8.60;99.90;;;;;;5078193;28;20477;-59
2022/02/06 11:48:53;;;;;;;1.20;0.80;;;8.60;99.90;;;;;;5078240;28;20430;-60
2022/02/06 11:51:21;;;;;;;2.17;1.10;;;8.60;99.90;;;;;;5079093;28;20474;-61
2022/02/06 11:53:48;;;;;;;1.10;0.80;;;8.60;99.90;;;;;;5079157;28;20460;-60
2022/02/06 11:56:33;;;;;;;1.53;1.00;;;8.60;99.90;;;;;;5078457;28;20469;-60
2022/02/06 11:59:10;;;;;;;1.87;1.10;;;8.60;99.90;;;;;;5078038;28;20745;-62
2022/02/06 12:01:42;;;;;;;2.20;1.23;;;8.60;99.90;;;;;;5077575;28;20481;-61
2022/02/06 12:04:20;;;;;;;1.10;0.90;;;8.60;99.90;;;;;;5077718;28;20536;-60
2022/02/06 12:06:52;;;;;;;1.00;0.83;;;8.60;99.90;;;;;;5080986;28;20472;-63
2022/02/06 12:09:23;;;;;;;1.43;0.83;;;8.60;99.90;;;;;;5080465;28;20432;-60
2022/02/06 12:12:12;;;;;;;2.27;1.10;;;8.60;99.90;;;;;;5077838;28;20499;-61
2022/02/06 12:14:45;;;;;;;1.50;0.80;;;8.50;99.90;;;;;;5071581;28;20450;-60
2022/02/06 12:17:21;;;;;;;1.70;1.00;;;8.50;99.90;;;;;;5075312;28;21001;-61
2022/02/06 12:20:07;;;;;;;1.73;0.80;;;8.50;99.90;;;;;;5073818;28;20445;-62
2022/02/06 12:22:46;;;;;;;1.90;1.10;;;8.50;99.90;;;;;;5077462;28;20465;-65
2022/02/06 12:25:26;;;;;;;1.43;0.90;;;8.50;99.90;;;;;;5076292;28;20937;-60
2022/02/06 12:27:54;;;;;;;2.03;0.97;;;8.50;99.90;;;;;;5076878;28;20442;-55
2022/02/06 12:30:24;;;;;;;1.00;0.70;;;8.50;99.90;;;;;;5077785;28;20452;-60
2022/02/06 12:32:52;;;;;;;2.63;1.10;;;8.50;99.90;;;;;;5080009;28;20508;-60
2022/02/06 12:38:09;;;;;;;1.67;1.03;;;8.50;99.90;;;;;;5077321;28;20507;-60
2022/02/06 12:40:35;;;;;;;1.10;0.93;;;8.50;99.90;;;;;;5076679;28;20452;-57
2022/02/06 12:43:05;;;;;;;1.40;0.70;;;8.50;99.90;;;;;;5076950;28;20486;-52
2022/02/06 12:45:33;;;;;;;1.77;1.40;;;8.50;99.90;;;;;;5076908;28;20512;-58
2022/02/06 12:48:03;;;;;;;2.40;1.40;;;8.50;99.90;;;;;;5076938;28;20479;-58
2022/02/06 12:50:33;;;;;;;2.10;1.63;;;8.40;99.90;;;;;;5077204;28;20458;-56
2022/02/06 12:53:01;;;;;;;1.70;1.20;;;8.50;99.90;;;;;;5080007;28;20492;-61
2022/02/06 12:55:30;;;;;;;2.13;1.10;;;8.40;99.90;;;;;;5080711;28;20458;-56
2022/02/06 12:57:57;;;;;;;2.40;0.90;;;8.40;99.90;;;;;;5082298;28;20474;-60
2022/02/06 13:00:32;;;;;;;1.50;0.90;;;8.40;99.90;;;;;;5086678;28;20469;-61
2022/02/06 13:03:26;;;;;;;1.00;0.80;;;8.40;99.90;;;;;;5082347;28;20959;-58
2022/02/06 13:05:56;;;;;;;1.60;0.80;;;8.50;99.90;;;;;;5080792;28;20489;-59
2022/02/06 13:08:23;;;;;;;2.00;1.10;;;8.50;99.90;;;;;;5080967;28;20897;-59
2022/02/06 13:10:51;;;;;;;2.10;1.23;;;8.50;99.90;;;;;;5081150;28;20453;-57
2022/02/06 13:13:20;;;;;;;1.30;0.83;;;8.50;99.90;;;;;;5082370;28;20465;-57
2022/02/06 13:15:57;;;;;;;1.27;0.90;;;8.50;99.90;;;;;;5092885;28;20464;-52
2022/02/06 13:18:59;;;;;;;2.03;0.97;;;8.50;99.90;;;;;;5097375;28;20500;-50
2022/02/06 13:21:39;;;;;;;1.10;0.80;;;8.50;99.90;;;;;;5077642;28;20482;-49
2022/02/06 13:27:00;;;;;;;4.37;0.90;;;8.40;99.90;;;;;;5075100;28;20447;-58
2022/02/06 13:29:37;;;;;;;1.80;0.90;;;8.40;99.90;;;;;;5082346;28;20540;-58
2022/02/06 13:32:21;;;;;;;1.30;0.87;;;8.40;99.90;;;;;;5092245;28;20477;-56
2022/02/06 13:35:09;;;;;;;2.00;0.77;;;8.50;99.90;;;;;;5078258;28;20504;-53
2022/02/06 13:37:44;;;;;;;1.00;0.80;;;8.50;99.90;;;;;;5084465;28;20443;-54
2022/02/06 13:40:16;;;;;;;1.83;0.80;;;8.50;99.90;;;;;;5078708;28;20468;-59
2022/02/06 13:42:57;;;;;;;0.97;0.60;;;8.50;99.90;;;;;;5078362;28;20423;-53
2022/02/06 13:45:25;;;;;;;1.10;0.70;;;8.40;99.90;;;;;;5078598;28;20474;-55
2022/02/06 13:47:54;;;;;;;1.57;0.90;;;8.40;99.90;;;;;;5097456;28;20455;-50
2022/02/06 13:50:22;;;;;;;1.00;0.77;;;8.30;99.90;;;;;;5098911;28;20453;-49
2022/02/06 13:53:07;;;;;;;1.13;0.70;;;8.30;99.90;;;;;;5093254;28;20460;-52
2022/02/06 13:55:34;;;;;;;23.27;14.93;;;8.30;99.90;;;;;;5098081;28;20422;-54
2022/02/06 13:58:01;;;;;;;1.43;0.80;;;8.20;99.90;;;;;;5097125;28;20440;-45
2022/02/06 14:00:28;;;;;;;2.63;1.30;;;8.20;99.90;;;;;;5098558;28;20551;-49
2022/02/06 14:02:57;;;;;;;1.50;1.10;;;8.20;99.90;;;;;;5079423;28;20494;-54
2022/02/06 14:05:27;;;;;;;1.10;0.80;;;8.20;99.90;;;;;;5078318;28;20466;-57
2022/02/06 14:08:05;;;;;;;0.90;0.70;;;8.20;99.90;;;;;;5079358;28;20458;-51
2022/02/06 14:10:44;;;;;;;0.90;0.60;;;8.10;99.90;;;;;;5077895;28;20447;-57
2022/02/06 14:13:22;;;;;;;0.90;0.60;;;8.10;99.90;;;;;;5078507;28;20458;-44
2022/02/06 14:15:49;;;;;;;1.50;0.80;;;8.00;99.90;;;;;;5098369;28;20458;-49
2022/02/06 14:18:15;;;;;;;1.17;0.70;;;8.00;99.90;;;;;;5096479;28;20443;-51
2022/02/06 14:20:56;;;;;;;5.33;1.80;;;8.00;99.90;;;;;;5094600;28;20895;-49
2022/02/06 14:23:23;;;;;;;1.30;0.80;;;7.90;99.90;;;;;;5098253;28;20476;-62
2022/02/06 14:25:50;;;;;;;1.53;0.80;;;7.90;99.90;;;;;;5098340;28;20477;-58
2022/02/06 14:28:18;;;;;;;0.90;0.60;;;7.70;99.90;;;;;;5089259;28;20469;-58
2022/02/06 14:30:45;;;;;;;1.43;0.90;;;7.70;99.90;;;;;;5077783;28;20441;-55
2022/02/06 14:33:12;;;;;;;2.03;0.80;;;7.60;99.90;;;;;;5078377;28;20431;-58
2022/02/06 14:35:42;;;;;;;2.17;0.97;;;7.60;99.90;;;;;;5078177;28;20456;-53
2022/02/06 14:38:16;;;;;;;1.00;0.70;;;7.60;99.90;;;;;;5085601;28;20451;-54